Irvine, KY

12:23 PM EST on March 02, 2015 (GMT -0500)
Mount Sterling-Montgomery County | Change Station
CLOSE
Current Station
Airport
Location: Mount Sterling,
Elevation: 1020 ft
Nearby Weather Stations

Elev 1020 ft 38.06 °N, 83.98 °W | Updated 8 minutes ago

Clear
Clear
32 °F
Feels Like 29 °F
N
4
Wind Variable Wind from NE

Today
High -- | Low -- °F
--% Chance of Precip.
Yesterday
High -- | Low -- °F
Precip. -- in
7:06 AM 6:30 PM
Waxing Gibbous, 92% visible
Pressure 30.51 in
Visibility 10.0 miles
Clouds Clear
Windchill 29 °F
Dew Point 21 °F
Humidity 64%
Rainfall 0.00 in
Snow Depth Not available.
UV 6 out of 12
Pollen 1.70 out of 12
Air Quality Not available.
Flu Activity Not available.
METAR KIOB 021715Z AUTO 04003KT 10SM CLR 00/M06 A3051 RMK AO2

More Conditions Fewer Conditions

Pressure 30.51 in
Visibility 10.0 miles
Clouds Clear
Windchill 29 °F
Dew Point 21 °F
Humidity 64%
Rainfall 0.00 in
Snow Depth Not available.
UV 6 out of 12
Pollen 1.70 out of 12
Air Quality Not available.
Flu Activity Not available.
METAR KIOB 021715Z AUTO 04003KT 10SM CLR 00/M06 A3051 RMK AO2

More Conditions Fewer Conditions

10-Day Weather Forecast

Almanac

Astronomy

Mar. 02, 2015 Rise Set
Actual Time
Civil Twilight
Nautical Twilight
Astronomical Twilight
Moon
Length of Visible Light
Length of Day
Tomorrow will be .
, % of the Moon is Illuminated

Today's Extremes

State Highs State Lows

Community

WunderPhotos

Upload Photos

1,801,866 photos uploaded!

WunderBlogs® & News

Nearby

Air Quality

  Air Quality AQ Index Pollutant
Not available.

Snow Depth

Station Depth Elevation

Earthquake Activity

City Distance Mag. Time & Date
Minimum magnitude displayed is 2.5.

Coastal Water Temperatures

Place Temperature

Nearby Weather Stations